The Weather Page

Only for information, data not for operational purposes.

ELLX Aeronautical Report by METEOLUX

ELLX Current METAR and TAF

ELLX 050520Z 21010KT 180V240 9999 -DZ SCT006 BKN008 02/01 Q1000 NOSIG

TAF ELLX 050500Z 0506/0612 24010KT 9999 SCT004 BKN006 PROB30 TEMPO 0509/0511 SCT008 TEMPO 0511/0519 3500 -RASN BR BKN002 TEMPO 0519/0610 2000 BCFG BKN003

METAR’s and TAF’s

METAR/TAF from US-NOAA-ADDS. Enter one or more ICAO codes separated by spaces:

METAR TAF 

A list of weather stations and their ICAO and IATA codes is found on this page.

Flight Preparation

EUMETSAT Infrared

Eumetsat Infrared

METEOX Radar

METEOX Radar Image


Share this

Comments are closed.